createdAt,value
2023-01-18T00:00:38.335Z,27.87
2023-01-18T00:03:46.695Z,27.77
2023-01-18T00:06:51.577Z,26.15
2023-01-18T00:09:57.153Z,28.15
2023-01-18T00:13:04.060Z,27.30
2023-01-18T00:16:11.610Z,27.95
2023-01-18T00:19:19.987Z,28.17
2023-01-18T00:22:25.193Z,27.32
2023-01-18T00:25:29.995Z,27.98
2023-01-18T00:28:36.222Z,28.45
2023-01-18T00:31:42.403Z,29.10
2023-01-18T00:34:51.498Z,27.58
2023-01-18T00:37:57.983Z,27.95
2023-01-18T00:41:04.933Z,28.65
2023-01-18T00:44:10.347Z,27.73
2023-01-18T00:47:15.746Z,26.40
2023-01-18T00:50:23.406Z,27.82
2023-01-18T00:53:32.004Z,27.50
2023-01-18T00:56:37.640Z,27.95
2023-01-18T00:59:43.334Z,27.50
2023-01-18T01:02:49.688Z,27.45
2023-01-18T01:06:13.325Z,27.93
2023-01-18T01:09:18.650Z,26.87
2023-01-18T01:12:41.601Z,27.42
2023-01-18T01:16:07.240Z,26.33
2023-01-18T01:19:31.056Z,25.77
2023-01-18T01:26:17.409Z,28.38
2023-01-18T01:29:24.477Z,26.35
2023-01-18T01:32:30.838Z,25.60
2023-01-18T01:35:37.230Z,26.52
2023-01-18T01:38:43.300Z,27.13
2023-01-18T01:41:51.095Z,28.47
2023-01-18T01:45:00.350Z,27.02
2023-01-18T01:48:05.583Z,28.20
2023-01-18T01:51:12.099Z,26.90
2023-01-18T01:54:20.457Z,27.25
2023-01-18T01:57:39.025Z,28.75
2023-01-18T02:00:45.085Z,26.10
2023-01-18T02:03:53.811Z,27.52
2023-01-18T02:06:59.110Z,27.27
2023-01-18T02:10:05.800Z,27.90
2023-01-18T02:13:11.682Z,28.32
2023-01-18T02:16:49.661Z,28.38
2023-01-18T02:20:37.853Z,28.42
2023-01-18T02:23:50.286Z,28.55
2023-01-18T02:27:08.332Z,28.30
2023-01-18T02:30:36.298Z,26.25
2023-01-18T02:33:51.207Z,27.67
2023-01-18T02:37:18.453Z,27.05
2023-01-18T02:40:41.529Z,29.50
2023-01-18T02:44:06.272Z,26.17
2023-01-18T02:47:12.010Z,25.92
2023-01-18T02:50:17.098Z,27.35
2023-01-18T02:53:22.315Z,27.87
2023-01-18T02:56:45.632Z,26.50
2023-01-18T02:59:57.230Z,23.73
2023-01-18T03:03:03.155Z,25.92
2023-01-18T03:06:09.601Z,25.90
2023-01-18T03:09:16.729Z,26.97
2023-01-18T03:12:54.685Z,26.42
2023-01-18T03:16:13.870Z,24.23
2023-01-18T03:19:40.549Z,25.43
2023-01-18T03:23:16.034Z,24.32
2023-01-18T03:26:27.556Z,24.02
2023-01-18T03:29:50.579Z,24.37
2023-01-18T03:33:15.271Z,24.50
2023-01-18T03:36:21.035Z,24.72
2023-01-18T03:39:35.448Z,25.50
2023-01-18T03:43:10.103Z,23.60
2023-01-18T03:46:15.707Z,24.70
2023-01-18T03:49:23.586Z,24.85
2023-01-18T03:52:37.407Z,25.02
2023-01-18T03:55:58.527Z,24.63
2023-01-18T03:59:05.426Z,23.52
2023-01-18T04:02:10.648Z,25.02
2023-01-18T04:05:17.524Z,23.90
2023-01-18T04:08:23.800Z,26.35
2023-01-18T04:11:29.674Z,25.12
2023-01-18T04:14:35.506Z,25.00
2023-01-18T04:17:42.341Z,24.27
2023-01-18T04:20:48.707Z,24.70
2023-01-18T04:23:55.297Z,24.60
2023-01-18T04:27:01.946Z,25.68
2023-01-18T04:30:08.017Z,25.27
2023-01-18T04:33:13.694Z,24.90
2023-01-18T04:36:19.898Z,25.32
2023-01-18T04:39:27.876Z,22.82
2023-01-18T04:42:33.091Z,23.30
2023-01-18T04:45:39.730Z,24.57
2023-01-18T04:48:45.325Z,23.75
2023-01-18T04:51:51.887Z,22.48
2023-01-18T04:54:58.646Z,24.50
2023-01-18T04:58:12.075Z,23.83
2023-01-18T05:01:23.252Z,22.22
2023-01-18T05:04:28.203Z,21.50
2023-01-18T05:07:34.220Z,21.97
2023-01-18T05:10:40.335Z,23.38
2023-01-18T05:13:47.709Z,21.57
2023-01-18T05:16:52.611Z,21.17
2023-01-18T05:20:00.613Z,21.17
2023-01-18T05:23:09.786Z,22.58
2023-01-18T05:26:20.942Z,21.85
2023-01-18T05:29:27.019Z,23.07
2023-01-18T05:32:33.362Z,21.55
2023-01-18T05:35:38.837Z,22.50
2023-01-18T05:38:44.336Z,23.73
2023-01-18T05:41:52.283Z,22.73
2023-01-18T05:44:58.558Z,21.82
2023-01-18T05:48:04.591Z,22.75
2023-01-18T05:51:09.762Z,22.00
2023-01-18T05:54:17.307Z,23.02
2023-01-18T05:57:22.657Z,21.70
2023-01-18T06:00:28.718Z,22.67
2023-01-18T06:03:36.409Z,22.48
2023-01-18T06:06:41.284Z,21.85
2023-01-18T06:09:48.498Z,22.52
2023-01-18T06:12:54.791Z,22.13
2023-01-18T06:16:01.119Z,21.87
2023-01-18T06:19:06.673Z,23.10
2023-01-18T06:22:11.944Z,22.22
2023-01-18T06:25:17.247Z,23.22
2023-01-18T06:28:23.380Z,22.13
2023-01-18T06:31:30.003Z,22.10
2023-01-18T06:34:35.819Z,22.95
2023-01-18T06:37:40.996Z,22.40
2023-01-18T06:40:46.864Z,22.25
2023-01-18T06:44:19.877Z,23.32
2023-01-18T06:47:31.111Z,20.23
2023-01-18T06:50:38.736Z,22.62
2023-01-18T06:53:45.551Z,22.27
2023-01-18T06:56:50.909Z,21.23
2023-01-18T06:59:59.775Z,20.90
2023-01-18T07:03:08.144Z,20.65
2023-01-18T07:06:19.430Z,22.52
2023-01-18T07:09:27.127Z,22.02
2023-01-18T07:12:33.292Z,20.88
2023-01-18T07:15:40.245Z,20.80
2023-01-18T07:18:48.381Z,21.73
2023-01-18T07:21:57.362Z,20.35
2023-01-18T07:25:03.778Z,20.82
2023-01-18T07:28:11.590Z,20.35
2023-01-18T07:31:17.110Z,20.92
2023-01-18T07:34:23.498Z,21.25
2023-01-18T07:37:28.706Z,20.25
2023-01-18T07:40:34.657Z,20.77
2023-01-18T07:43:40.627Z,20.17
2023-01-18T07:46:49.107Z,21.95
2023-01-18T07:49:54.996Z,20.88
2023-01-18T07:53:03.515Z,21.70
2023-01-18T07:56:15.548Z,21.35
2023-01-18T07:59:25.136Z,21.40
2023-01-18T08:02:30.974Z,20.82
2023-01-18T08:05:36.988Z,20.88
2023-01-18T08:08:47.010Z,20.40
2023-01-18T08:11:53.476Z,21.57
2023-01-18T08:15:02.972Z,21.17
2023-01-18T08:18:09.065Z,21.95
2023-01-18T08:21:18.890Z,21.65
2023-01-18T08:24:29.636Z,20.88
2023-01-18T08:27:35.356Z,19.87
2023-01-18T08:30:46.216Z,20.45
2023-01-18T08:33:55.201Z,21.00
2023-01-18T08:37:00.736Z,21.10
2023-01-18T08:40:07.571Z,21.17
2023-01-18T08:43:16.168Z,18.55
2023-01-18T08:46:24.216Z,19.32
2023-01-18T08:49:32.138Z,20.62
2023-01-18T08:52:38.899Z,20.23
2023-01-18T08:55:45.196Z,20.30
2023-01-18T08:58:53.483Z,19.02
2023-01-18T09:02:00.460Z,18.52
2023-01-18T09:05:05.849Z,18.80
2023-01-18T09:08:12.454Z,20.12
2023-01-18T09:11:20.545Z,18.27
2023-01-18T09:14:28.094Z,20.50
2023-01-18T09:17:34.574Z,18.32
2023-01-18T09:20:42.600Z,20.20
2023-01-18T09:23:50.511Z,19.90
2023-01-18T09:26:58.364Z,18.98
2023-01-18T09:30:05.627Z,20.08
2023-01-18T09:33:16.101Z,19.37
2023-01-18T09:36:31.588Z,19.57
2023-01-18T09:39:51.054Z,19.75
2023-01-18T09:42:53.549Z,19.65
2023-01-18T09:45:59.945Z,19.02
2023-01-18T09:49:14.185Z,19.00
2023-01-18T09:52:39.200Z,20.32
2023-01-18T09:56:05.501Z,19.77
2023-01-18T09:59:32.549Z,19.57
2023-01-18T10:02:52.762Z,19.87
2023-01-18T10:06:16.217Z,20.48
2023-01-18T10:09:51.194Z,18.75
2023-01-18T10:13:04.012Z,18.90
2023-01-18T10:16:11.147Z,18.90
2023-01-18T10:19:18.092Z,18.90
2023-01-18T10:22:40.640Z,18.82
2023-01-18T10:25:59.092Z,19.75
2023-01-18T10:29:28.732Z,20.82
2023-01-18T10:32:35.622Z,19.80
2023-01-18T10:35:47.663Z,21.93
2023-01-18T10:38:53.098Z,21.75
2023-01-18T10:41:58.198Z,20.30
2023-01-18T10:45:05.489Z,19.70
2023-01-18T10:48:13.971Z,19.27
2023-01-18T10:51:21.030Z,19.15
2023-01-18T10:54:41.097Z,20.10
2023-01-18T10:57:50.676Z,18.45
2023-01-18T11:00:57.274Z,18.82
2023-01-18T11:04:14.887Z,18.27
2023-01-18T11:07:20.279Z,19.60
2023-01-18T11:10:43.215Z,19.30
2023-01-18T11:14:01.751Z,19.07
2023-01-18T11:17:18.415Z,18.15
2023-01-18T11:21:04.155Z,18.17
2023-01-18T11:24:12.765Z,16.87
2023-01-18T11:27:30.061Z,20.80
2023-01-18T11:30:37.358Z,19.90
2023-01-18T11:33:47.702Z,19.00
2023-01-18T11:36:59.757Z,19.75
2023-01-18T11:40:07.185Z,17.67
2023-01-18T11:43:33.400Z,19.35
2023-01-18T11:47:00.124Z,19.00
2023-01-18T11:50:31.346Z,18.32
2023-01-18T11:53:55.931Z,18.40
2023-01-18T11:57:07.948Z,16.55
2023-01-18T12:00:13.171Z,18.00
2023-01-18T12:03:50.907Z,18.37
2023-01-18T12:07:11.901Z,17.77
2023-01-18T12:10:17.319Z,17.00
2023-01-18T12:13:44.877Z,18.45
2023-01-18T12:17:10.588Z,20.10
2023-01-18T12:20:45.740Z,20.12
2023-01-18T12:24:22.388Z,17.98
2023-01-18T12:27:45.761Z,17.40
2023-01-18T12:34:32.941Z,18.27
2023-01-18T12:37:49.288Z,18.73
2023-01-18T12:41:12.951Z,18.62
2023-01-18T12:44:57.602Z,18.90
2023-01-18T12:48:36.090Z,17.80
2023-01-18T12:51:46.229Z,17.27
2023-01-18T12:55:10.003Z,18.52
2023-01-18T12:58:15.380Z,17.70
2023-01-18T13:01:22.384Z,18.27
2023-01-18T13:04:35.898Z,17.20
2023-01-18T13:07:45.617Z,18.65
2023-01-18T13:10:51.721Z,18.80
2023-01-18T13:13:58.436Z,18.95
2023-01-18T13:17:21.081Z,19.90
2023-01-18T13:20:33.489Z,18.70
2023-01-18T13:24:22.868Z,19.40
2023-01-18T13:27:30.110Z,19.52
2023-01-18T13:30:37.185Z,18.92
2023-01-18T13:33:47.408Z,17.80
2023-01-18T13:37:13.482Z,18.52
2023-01-18T13:40:07.237Z,18.75
2023-01-18T13:43:06.971Z,18.90
2023-01-18T13:46:25.648Z,20.37
2023-01-18T13:49:41.995Z,20.27
2023-01-18T13:52:49.810Z,20.00
2023-01-18T13:56:19.329Z,19.37
2023-01-18T13:59:34.423Z,18.32
2023-01-18T14:02:47.286Z,18.80
2023-01-18T14:06:01.317Z,18.80
2023-01-18T14:09:10.588Z,17.95
2023-01-18T14:12:16.143Z,18.17
2023-01-18T14:15:27.501Z,17.50
2023-01-18T14:18:46.788Z,19.77
2023-01-18T14:22:19.619Z,19.70
2023-01-18T14:25:51.576Z,20.10
2023-01-18T14:29:08.932Z,19.05
2023-01-18T14:32:18.310Z,20.30
2023-01-18T14:35:47.196Z,21.00
2023-01-18T14:38:56.613Z,20.40
2023-01-18T14:42:12.049Z,20.77
2023-01-18T14:45:21.988Z,20.30
2023-01-18T14:48:33.026Z,20.97
2023-01-18T14:51:36.283Z,21.70
2023-01-18T14:57:49.085Z,21.52
2023-01-18T15:01:06.313Z,20.90
2023-01-18T15:04:17.570Z,20.15
2023-01-18T15:07:29.892Z,21.07
2023-01-18T15:10:43.054Z,19.90
2023-01-18T15:13:49.860Z,18.77
2023-01-18T15:16:55.117Z,19.50
2023-01-18T15:20:00.629Z,20.48
2023-01-18T15:23:08.062Z,19.73
2023-01-18T15:26:13.953Z,19.80
2023-01-18T15:29:29.153Z,19.92
2023-01-18T15:32:40.135Z,21.12
2023-01-18T15:35:48.059Z,20.00
2023-01-18T15:38:53.839Z,20.95
2023-01-18T15:41:59.377Z,20.35
2023-01-18T15:45:06.831Z,21.05
2023-01-18T15:48:24.433Z,20.08
2023-01-18T15:51:33.007Z,21.65
2023-01-18T15:54:41.279Z,19.15
2023-01-18T15:57:48.992Z,19.82
2023-01-18T16:01:00.083Z,20.05
2023-01-18T16:04:13.740Z,20.37
2023-01-18T16:08:00.982Z,18.98
2023-01-18T16:11:05.356Z,19.73
2023-01-18T16:14:17.943Z,22.75
2023-01-18T16:17:32.975Z,21.87
2023-01-18T16:20:41.435Z,22.77
2023-01-18T16:23:47.254Z,20.80
2023-01-18T16:26:54.865Z,19.85
2023-01-18T16:30:03.244Z,20.62
2023-01-18T16:33:08.808Z,22.17
2023-01-18T16:36:17.239Z,21.02
2023-01-18T16:39:23.753Z,21.23
2023-01-18T16:42:38.048Z,19.87
2023-01-18T16:45:39.454Z,20.15
2023-01-18T16:48:44.349Z,20.50
2023-01-18T16:51:50.615Z,19.85
2023-01-18T16:54:58.844Z,19.82
2023-01-18T16:58:05.572Z,21.20
2023-01-18T17:01:21.650Z,19.55
2023-01-18T17:04:29.406Z,20.27
2023-01-18T17:07:40.022Z,21.10
2023-01-18T17:10:54.715Z,21.68
2023-01-18T17:14:01.493Z,20.52
2023-01-18T17:17:10.563Z,20.15
2023-01-18T17:20:38.665Z,19.90
2023-01-18T17:23:48.945Z,18.20
2023-01-18T17:26:54.464Z,18.92
2023-01-18T17:30:00.649Z,16.85
2023-01-18T17:33:06.644Z,18.65
2023-01-18T17:36:13.131Z,16.75
2023-01-18T17:39:19.685Z,17.00
2023-01-18T17:42:30.217Z,16.40
2023-01-18T17:45:32.691Z,17.55
2023-01-18T17:48:39.147Z,15.90
2023-01-18T17:51:45.654Z,16.17
2023-01-18T17:54:54.917Z,16.40
2023-01-18T17:58:03.066Z,16.87
2023-01-18T18:01:08.913Z,15.38
2023-01-18T18:04:14.571Z,16.07
2023-01-18T18:07:21.388Z,15.98
2023-01-18T18:10:28.234Z,16.42
2023-01-18T18:13:36.621Z,17.67
2023-01-18T18:16:44.084Z,18.30
2023-01-18T18:19:51.222Z,17.65
2023-01-18T18:22:57.104Z,19.52
2023-01-18T18:26:04.108Z,17.82
2023-01-18T18:29:09.421Z,19.73
2023-01-18T18:32:15.625Z,21.62
2023-01-18T18:35:25.842Z,19.92
2023-01-18T18:38:33.168Z,21.02
2023-01-18T18:41:40.228Z,20.20
2023-01-18T18:44:46.680Z,22.10
2023-01-18T18:47:53.745Z,23.02
2023-01-18T18:51:01.487Z,20.30
2023-01-18T18:54:09.439Z,22.80
2023-01-18T18:57:14.169Z,22.87
2023-01-18T19:00:21.260Z,24.90
2023-01-18T19:03:28.456Z,21.73
2023-01-18T19:06:34.962Z,21.45
2023-01-18T19:09:39.782Z,21.80
2023-01-18T19:12:45.814Z,21.00
2023-01-18T19:15:52.608Z,22.40
2023-01-18T19:18:59.040Z,21.55
2023-01-18T19:22:05.353Z,20.68
2023-01-18T19:25:13.199Z,20.65
2023-01-18T19:28:18.758Z,21.57
2023-01-18T19:31:24.678Z,22.50
2023-01-18T19:34:32.772Z,21.50
2023-01-18T19:37:39.346Z,21.23
2023-01-18T19:40:45.316Z,21.37
2023-01-18T19:43:50.572Z,22.10
2023-01-18T19:46:56.303Z,20.15
2023-01-18T19:50:04.096Z,20.97
2023-01-18T19:53:10.125Z,21.02
2023-01-18T19:56:15.781Z,21.20
2023-01-18T19:59:22.670Z,20.23
2023-01-18T20:02:30.410Z,20.15
2023-01-18T20:05:36.818Z,20.15
2023-01-18T20:08:41.974Z,18.52
2023-01-18T20:11:47.873Z,18.55
2023-01-18T20:14:55.148Z,20.45
2023-01-18T20:18:01.399Z,20.32
2023-01-18T20:21:07.857Z,18.12
2023-01-18T20:24:14.401Z,16.90
2023-01-18T20:27:21.930Z,17.35
2023-01-18T20:30:28.585Z,16.73
2023-01-18T20:33:34.524Z,17.85
2023-01-18T20:36:44.731Z,18.00
2023-01-18T20:39:49.663Z,17.25
2023-01-18T20:42:57.533Z,18.55
2023-01-18T20:46:16.834Z,16.37
2023-01-18T20:49:33.156Z,16.37
2023-01-18T20:52:31.192Z,18.30
2023-01-18T20:58:51.294Z,19.35
2023-01-18T21:01:59.587Z,17.30
2023-01-18T21:05:06.501Z,16.40
2023-01-18T21:08:11.243Z,15.80
2023-01-18T21:11:16.117Z,16.37
2023-01-18T21:14:21.752Z,16.37
2023-01-18T21:17:30.257Z,16.67
2023-01-18T21:20:36.435Z,16.85
2023-01-18T21:23:48.899Z,17.05
2023-01-18T21:27:02.657Z,17.20
2023-01-18T21:30:09.709Z,15.58
2023-01-18T21:33:17.435Z,17.20
2023-01-18T21:36:29.951Z,15.85
2023-01-18T21:39:36.839Z,17.77
2023-01-18T21:43:00.909Z,16.00
2023-01-18T21:46:07.910Z,16.05
2023-01-18T21:49:32.346Z,17.30
2023-01-18T21:52:49.331Z,16.87
2023-01-18T21:55:56.260Z,17.62
2023-01-18T21:59:04.600Z,16.60
2023-01-18T22:02:10.590Z,16.30
2023-01-18T22:05:16.747Z,16.27
2023-01-18T22:08:25.627Z,15.50
2023-01-18T22:11:31.777Z,16.15
2023-01-18T22:14:38.595Z,15.15
2023-01-18T22:17:44.867Z,16.50
2023-01-18T22:20:50.707Z,15.65
2023-01-18T22:23:55.779Z,16.12
2023-01-18T22:27:02.025Z,17.42
2023-01-18T22:30:08.782Z,17.05
2023-01-18T22:33:14.940Z,16.82
2023-01-18T22:36:26.267Z,15.78
2023-01-18T22:39:32.165Z,16.80
2023-01-18T22:42:38.575Z,16.12
2023-01-18T22:45:43.886Z,17.32
2023-01-18T22:48:51.521Z,18.23
2023-01-18T22:51:57.576Z,15.95
2023-01-18T22:55:03.506Z,18.20
2023-01-18T22:58:09.432Z,17.37
2023-01-18T23:01:18.496Z,17.98
2023-01-18T23:04:26.141Z,15.95
2023-01-18T23:07:33.925Z,18.32
2023-01-18T23:10:40.918Z,17.75
2023-01-18T23:13:47.430Z,16.45
2023-01-18T23:17:13.949Z,16.75
2023-01-18T23:20:26.583Z,17.75
2023-01-18T23:23:33.442Z,18.20
2023-01-18T23:26:40.485Z,18.15
2023-01-18T23:29:48.593Z,18.92
2023-01-18T23:32:55.869Z,17.25
2023-01-18T23:36:00.918Z,16.97
2023-01-18T23:39:24.049Z,16.25
2023-01-18T23:42:47.035Z,16.97
2023-01-18T23:46:11.527Z,18.82
2023-01-18T23:49:35.949Z,17.25
2023-01-18T23:52:59.355Z,18.48
2023-01-18T23:56:09.077Z,17.90
2023-01-18T23:59:16.746Z,17.12
